^^
Datos históricos de la estación: Murcia-Puente Tocinos
Diario Informe para Agosto 19, 2019 Unidades:  Métrico    Inglés   Ambas
Diario Semanal Mensual Anual Configurable
  Máximo: Mínimo: Media:
Temperatura: 32.7 °C 24.1 °C 28.2 °C
Punto de rocio: 23.4 °C 15.2 °C 20.4 °C
Humedad: 87% 40% 65%
Velocidad viento: 20.9km/h 0.0km/h 9.7km/h
Racha viento: 40.2km/h - -
Viento- - East
Presión: 1013.0 hPa 1010.2 hPa -
Precipitación: 0.0 mm    
Historical Graphs
 
 
Tabla de datos para Agosto 19, 2019
Hora Temperatura Punto de rocio Presión Viento Velocidad viento Racha viento Humedad Intensidad lluvia(por hora) Nubes
00:00 25.1 °C 18.1 °C 1010.2 hPa WSW 3.2 km/h 8.0 km/h 65% 0.0 mm CLR
00:05 25.0 °C 18.2 °C 1010.2 hPa WSW 3.2 km/h 6.4 km/h 66% 0.0 mm CLR
00:10 24.9 °C 18.1 °C 1010.2 hPa WSW 3.2 km/h 6.4 km/h 66% 0.0 mm CLR
00:15 24.8 °C 18.0 °C 1010.2 hPa WSW 3.2 km/h 4.8 km/h 66% 0.0 mm CLR
00:20 24.8 °C 18.3 °C 1010.2 hPa SSW 3.2 km/h 8.0 km/h 67% 0.0 mm CLR
00:25 24.6 °C 18.3 °C 1010.2 hPa SSE 3.2 km/h 9.7 km/h 68% 0.0 mm CLR
00:30 24.4 °C 18.1 °C 1010.2 hPa SSE 4.8 km/h 8.0 km/h 68% 0.0 mm CLR
00:35 24.3 °C 18.0 °C 1010.2 hPa SSE 4.8 km/h 8.0 km/h 68% 0.0 mm CLR
00:40 24.3 °C 18.0 °C 1010.2 hPa South 5.0 km/h 7.4 km/h 68% 0.0 mm CLR
00:45 24.3 °C 18.0 °C 1010.2 hPa South 4.8 km/h 9.7 km/h 68% 0.0 mm CLR
00:50 24.4 °C 18.1 °C 1010.2 hPa SSE 6.4 km/h 11.1 km/h 68% 0.0 mm CLR
00:55 24.4 °C 17.9 °C 1010.2 hPa SSE 8.0 km/h 11.3 km/h 67% 0.0 mm CLR
01:00 24.4 °C 18.1 °C 1010.2 hPa SSE 8.0 km/h 11.3 km/h 68% 0.0 mm CLR
01:05 24.2 °C 18.2 °C 1010.3 hPa SSE 8.0 km/h 11.3 km/h 69% 0.0 mm CLR
01:10 24.1 °C 18.1 °C 1010.3 hPa South 8.0 km/h 9.7 km/h 69% 0.0 mm CLR
01:15 24.1 °C 18.1 °C 1010.3 hPa SSW 8.0 km/h 9.7 km/h 69% 0.0 mm CLR
01:20 24.1 °C 18.1 °C 1010.4 hPa SSW 4.8 km/h 8.0 km/h 69% 0.0 mm CLR
01:25 24.2 °C 17.9 °C 1010.4 hPa WSW 4.8 km/h 8.0 km/h 68% 0.0 mm CLR
01:30 24.2 °C 17.7 °C 1010.4 hPa West 3.2 km/h 8.0 km/h 67% 0.0 mm CLR
01:35 24.3 °C 17.8 °C 1010.4 hPa WSW 3.2 km/h 9.7 km/h 67% 0.0 mm CLR
01:40 24.3 °C 17.6 °C 1010.4 hPa SW 4.8 km/h 8.0 km/h 66% 0.0 mm CLR
01:45 24.4 °C 17.6 °C 1010.4 hPa SW 4.8 km/h 8.0 km/h 66% 0.0 mm CLR
01:50 24.6 °C 17.8 °C 1010.5 hPa SSW 3.2 km/h 8.0 km/h 66% 0.0 mm CLR
01:55 24.7 °C 18.2 °C 1010.5 hPa SSW 3.2 km/h 8.0 km/h 67% 0.0 mm CLR
02:00 24.7 °C 18.2 °C 1010.5 hPa SSW 3.2 km/h 9.7 km/h 67% 0.0 mm CLR
02:05 24.7 °C 17.9 °C 1010.5 hPa SW 3.2 km/h 9.7 km/h 66% 0.0 mm CLR
02:10 24.8 °C 17.8 °C 1010.5 hPa WSW 4.8 km/h 8.0 km/h 65% 0.0 mm CLR
02:15 24.8 °C 17.8 °C 1010.5 hPa WSW 4.8 km/h 8.0 km/h 65% 0.0 mm CLR
02:20 24.9 °C 17.7 °C 1010.6 hPa SW 3.2 km/h 9.7 km/h 64% 0.0 mm CLR
02:25 25.1 °C 17.6 °C 1010.6 hPa WSW 3.2 km/h 9.7 km/h 63% 0.0 mm CLR
02:30 25.2 °C 17.4 °C 1010.6 hPa WSW 4.8 km/h 9.7 km/h 62% 0.0 mm CLR
02:35 25.3 °C 17.2 °C 1010.7 hPa WSW 4.8 km/h 9.7 km/h 61% 0.0 mm CLR
02:40 25.3 °C 17.3 °C 1010.7 hPa SW 4.8 km/h 8.0 km/h 61% 0.0 mm CLR
02:45 25.5 °C 17.2 °C 1010.7 hPa SSW 4.8 km/h 9.7 km/h 60% 0.0 mm CLR
02:50 25.6 °C 17.0 °C 1010.7 hPa SSW 4.8 km/h 9.7 km/h 59% 0.0 mm CLR
02:55 25.7 °C 17.6 °C 1010.7 hPa SSW 4.8 km/h 9.7 km/h 61% 0.0 mm CLR
03:00 25.8 °C 17.4 °C 1010.7 hPa SSE 3.2 km/h 9.7 km/h 60% 0.0 mm CLR
03:05 25.7 °C 16.8 °C 1010.9 hPa South 3.2 km/h 11.3 km/h 58% 0.0 mm CLR
03:10 25.7 °C 16.6 °C 1010.9 hPa SSW 7.6 km/h 13.0 km/h 57% 0.0 mm CLR
03:15 25.9 °C 16.4 °C 1010.9 hPa SSW 8.0 km/h 12.9 km/h 56% 0.0 mm CLR
03:20 26.1 °C 16.1 °C 1011.1 hPa SW 7.6 km/h 9.3 km/h 54% 0.0 mm CLR
03:25 26.2 °C 15.9 °C 1011.1 hPa SW 8.0 km/h 11.3 km/h 53% 0.0 mm CLR
03:30 26.4 °C 15.8 °C 1011.1 hPa SSW 8.0 km/h 11.3 km/h 52% 0.0 mm CLR
03:35 26.4 °C 15.8 °C 1011.2 hPa SSW 8.0 km/h 12.9 km/h 52% 0.0 mm CLR
03:40 26.6 °C 15.9 °C 1011.2 hPa SSW 8.0 km/h 9.7 km/h 52% 0.0 mm CLR
03:45 26.8 °C 16.1 °C 1011.2 hPa SSW 8.0 km/h 12.9 km/h 52% 0.0 mm CLR
03:50 26.9 °C 15.9 °C 1011.3 hPa SSW 8.0 km/h 11.3 km/h 51% 0.0 mm CLR
03:55 27.1 °C 16.1 °C 1011.3 hPa SSW 8.0 km/h 12.9 km/h 51% 0.0 mm CLR
04:00 27.2 °C 15.9 °C 1011.3 hPa SSW 8.0 km/h 11.3 km/h 50% 0.0 mm CLR
04:05 27.4 °C 16.0 °C 1011.3 hPa SSW 8.0 km/h 9.7 km/h 50% 0.0 mm CLR
04:10 27.7 °C 16.0 °C 1011.3 hPa SSW 8.0 km/h 11.3 km/h 49% 0.0 mm CLR
04:15 27.9 °C 16.2 °C 1011.3 hPa SSW 8.0 km/h 12.9 km/h 49% 0.0 mm CLR
04:20 28.1 °C 16.1 °C 1011.4 hPa SSW 8.0 km/h 14.5 km/h 48% 0.0 mm CLR
04:25 28.4 °C 16.0 °C 1011.4 hPa SSW 8.0 km/h 11.3 km/h 47% 0.0 mm CLR
04:30 28.7 °C 15.3 °C 1011.4 hPa SW 4.8 km/h 9.7 km/h 44% 0.0 mm CLR
04:35 29.1 °C 15.2 °C 1011.5 hPa WSW 4.8 km/h 9.7 km/h 43% 0.0 mm CLR
04:40 29.4 °C 15.2 °C 1011.5 hPa West 3.2 km/h 8.0 km/h 42% 0.0 mm CLR
04:45 29.9 °C 15.6 °C 1011.5 hPa WSW 3.2 km/h 9.7 km/h 42% 0.0 mm CLR
04:50 30.4 °C 15.7 °C 1011.5 hPa ENE 3.2 km/h 9.7 km/h 41% 0.0 mm CLR
04:55 30.4 °C 15.3 °C 1011.5 hPa NE 3.2 km/h 11.3 km/h 40% 0.0 mm CLR
05:00 30.4 °C 15.7 °C 1011.5 hPa NE 8.0 km/h 12.9 km/h 41% 0.0 mm CLR
05:05 30.3 °C 15.9 °C 1011.8 hPa NE 8.0 km/h 14.5 km/h 42% 0.0 mm CLR
05:10 30.3 °C 15.9 °C 1011.8 hPa NE 8.0 km/h 14.5 km/h 42% 0.0 mm CLR
05:15 30.3 °C 16.3 °C 1011.8 hPa NE 8.0 km/h 16.1 km/h 43% 0.0 mm CLR
05:20 30.4 °C 16.4 °C 1011.9 hPa NE 9.7 km/h 14.5 km/h 43% 0.0 mm CLR
05:25 30.3 °C 17.1 °C 1011.9 hPa NE 9.7 km/h 20.9 km/h 45% 0.0 mm CLR
05:30 30.4 °C 17.1 °C 1011.9 hPa NE 9.7 km/h 19.3 km/h 45% 0.0 mm CLR
05:35 30.3 °C 16.3 °C 1011.9 hPa ENE 10.0 km/h 18.5 km/h 43% 0.0 mm CLR
05:40 30.3 °C 15.9 °C 1011.9 hPa NE 12.9 km/h 22.5 km/h 42% 0.0 mm CLR
05:45 30.6 °C 16.6 °C 1011.9 hPa NE 12.9 km/h 20.9 km/h 43% 0.0 mm CLR
05:50 30.9 °C 16.8 °C 1011.8 hPa NE 12.9 km/h 19.3 km/h 43% 0.0 mm CLR
05:55 31.0 °C 16.9 °C 1011.8 hPa NE 12.9 km/h 24.1 km/h 43% 0.0 mm CLR
06:00 31.2 °C 17.1 °C 1011.8 hPa NE 12.9 km/h 24.1 km/h 43% 0.0 mm CLR
06:05 31.2 °C 17.5 °C 1011.7 hPa NE 12.9 km/h 24.1 km/h 44% 0.0 mm CLR
06:10 31.1 °C 17.4 °C 1011.7 hPa NE 14.5 km/h 25.7 km/h 44% 0.0 mm CLR
06:15 31.2 °C 17.6 °C 1011.7 hPa NE 14.5 km/h 22.5 km/h 44% 0.0 mm CLR
06:20 31.3 °C 18.3 °C 1011.8 hPa NE 14.5 km/h 24.1 km/h 46% 0.0 mm CLR
06:25 31.3 °C 16.8 °C 1011.8 hPa NE 14.5 km/h 22.5 km/h 42% 0.0 mm CLR
06:30 31.4 °C 18.1 °C 1011.8 hPa NE 14.5 km/h 24.1 km/h 45% 0.0 mm CLR
06:35 31.6 °C 18.2 °C 1011.8 hPa NE 14.5 km/h 20.9 km/h 45% 0.0 mm CLR
06:40 31.8 °C 19.4 °C 1011.8 hPa ENE 13.0 km/h 20.4 km/h 48% 0.0 mm CLR
06:45 31.7 °C 19.3 °C 1011.8 hPa NE 12.9 km/h 25.7 km/h 48% 0.0 mm CLR
06:50 31.8 °C 20.1 °C 1011.9 hPa ENE 12.9 km/h 24.1 km/h 50% 0.0 mm CLR
06:55 32.1 °C 20.3 °C 1011.9 hPa ENE 12.9 km/h 24.1 km/h 50% 0.0 mm CLR
07:00 32.1 °C 20.7 °C 1011.9 hPa ENE 12.9 km/h 25.7 km/h 51% 0.0 mm CLR
07:05 32.1 °C 20.6 °C 1011.9 hPa ENE 12.9 km/h 27.4 km/h 51% 0.0 mm CLR
07:10 32.1 °C 20.4 °C 1011.9 hPa NE 12.9 km/h 24.1 km/h 50% 0.0 mm CLR
07:15 32.3 °C 20.6 °C 1011.9 hPa ENE 12.9 km/h 22.5 km/h 50% 0.0 mm CLR
07:20 32.5 °C 21.1 °C 1011.8 hPa ENE 12.9 km/h 22.5 km/h 51% 0.0 mm CLR
07:25 32.6 °C 20.8 °C 1011.8 hPa NE 12.9 km/h 27.4 km/h 50% 0.0 mm CLR
07:30 32.4 °C 20.3 °C 1011.8 hPa NE 14.5 km/h 30.6 km/h 49% 0.0 mm CLR
07:35 32.2 °C 19.8 °C 1011.8 hPa NE 14.5 km/h 30.6 km/h 48% 0.0 mm CLR
07:40 32.2 °C 19.1 °C 1011.8 hPa NE 19.3 km/h 32.2 km/h 46% 0.0 mm CLR
07:45 32.3 °C 18.5 °C 1011.8 hPa NE 19.3 km/h 27.4 km/h 44% 0.0 mm CLR
07:50 32.3 °C 18.9 °C 1011.6 hPa NE 19.3 km/h 29.0 km/h 45% 0.0 mm CLR
07:55 32.3 °C 19.6 °C 1011.6 hPa NE 19.3 km/h 33.8 km/h 47% 0.0 mm CLR
08:00 32.7 °C 19.6 °C 1011.6 hPa NE 16.1 km/h 25.7 km/h 46% 0.0 mm CLR
08:05 32.7 °C 19.2 °C 1011.5 hPa NE 16.1 km/h 27.4 km/h 45% 0.0 mm CLR
08:10 32.4 °C 19.7 °C 1011.5 hPa NE 16.1 km/h 27.4 km/h 47% 0.0 mm CLR
08:15 32.4 °C 18.9 °C 1011.5 hPa NE 16.1 km/h 27.4 km/h 45% 0.0 mm CLR
08:20 32.3 °C 18.8 °C 1011.4 hPa NE 19.3 km/h 33.8 km/h 45% 0.0 mm CLR
08:25 32.2 °C 18.8 °C 1011.4 hPa NE 19.3 km/h 32.2 km/h 45% 0.0 mm CLR
08:30 32.3 °C 18.8 °C 1011.4 hPa NE 20.9 km/h 35.4 km/h 45% 0.0 mm CLR
08:35 32.3 °C 19.6 °C 1011.4 hPa NE 20.9 km/h 35.4 km/h 47% 0.0 mm CLR
08:40 32.2 °C 19.8 °C 1011.4 hPa NE 20.9 km/h 33.8 km/h 48% 0.0 mm CLR
08:45 32.1 °C 19.4 °C 1011.4 hPa NE 20.9 km/h 32.2 km/h 47% 0.0 mm CLR
08:50 32.3 °C 19.6 °C 1011.3 hPa NE 19.3 km/h 29.0 km/h 47% 0.0 mm CLR
08:55 32.3 °C 19.2 °C 1011.3 hPa NE 19.3 km/h 30.6 km/h 46% 0.0 mm CLR
09:00 32.4 °C 19.3 °C 1011.3 hPa ENE 16.1 km/h 25.7 km/h 46% 0.0 mm CLR
09:05 32.5 °C 20.1 °C 1011.3 hPa NE 16.1 km/h 33.8 km/h 48% 0.0 mm CLR
09:10 32.4 °C 20.3 °C 1011.3 hPa NE 19.3 km/h 32.2 km/h 49% 0.0 mm CLR
09:15 32.2 °C 20.1 °C 1011.3 hPa NE 19.3 km/h 40.2 km/h 49% 0.0 mm CLR
09:20 32.2 °C 20.4 °C 1011.3 hPa NE 20.9 km/h 27.8 km/h 50% 0.0 mm CLR
09:25 32.2 °C 20.1 °C 1011.3 hPa NE 20.9 km/h 35.4 km/h 49% 0.0 mm CLR
09:30 32.3 °C 20.2 °C 1011.3 hPa NE 19.3 km/h 33.8 km/h 49% 0.0 mm CLR
09:35 32.3 °C 20.2 °C 1011.3 hPa NE 19.3 km/h 35.4 km/h 49% 0.0 mm CLR
09:40 32.2 °C 20.4 °C 1011.3 hPa NE 19.3 km/h 27.4 km/h 50% 0.0 mm CLR
09:45 32.1 °C 20.9 °C 1011.3 hPa NE 19.3 km/h 33.8 km/h 52% 0.0 mm CLR
09:50 32.1 °C 20.4 °C 1011.3 hPa NE 19.3 km/h 27.4 km/h 50% 0.0 mm CLR
09:55 32.1 °C 20.1 °C 1011.3 hPa NE 19.3 km/h 29.0 km/h 49% 0.0 mm CLR
10:00 31.9 °C 19.8 °C 1011.3 hPa NE 19.3 km/h 29.0 km/h 49% 0.0 mm CLR
10:05 32.1 °C 19.7 °C 1011.3 hPa NE 18.0 km/h 20.4 km/h 48% 0.0 mm CLR
10:10 32.2 °C 20.1 °C 1011.3 hPa NE 16.1 km/h 24.1 km/h 49% 0.0 mm CLR
10:15 32.3 °C 19.9 °C 1011.3 hPa NE 16.1 km/h 22.2 km/h 48% 0.0 mm CLR
10:35 32.3 °C 18.1 °C 1011.1 hPa NE 14.8 km/h 22.2 km/h 43% 0.0 mm CLR
10:40 32.4 °C 17.9 °C 1011.1 hPa ENE 12.9 km/h 25.7 km/h 42% 0.0 mm CLR
10:45 32.2 °C 17.7 °C 1011.1 hPa ENE 12.9 km/h 32.2 km/h 42% 0.0 mm CLR
10:50 32.2 °C 17.6 °C 1011.0 hPa NE 20.9 km/h 33.8 km/h 42% 0.0 mm CLR
10:55 32.2 °C 17.7 °C 1011.0 hPa NE 20.9 km/h 35.4 km/h 42% 0.0 mm CLR
11:00 32.2 °C 17.7 °C 1011.0 hPa NE 19.3 km/h 30.6 km/h 42% 0.0 mm CLR
11:05 32.3 °C 17.8 °C 1010.9 hPa NE 19.3 km/h 27.4 km/h 42% 0.0 mm CLR
11:10 32.2 °C 17.7 °C 1010.9 hPa NE 19.3 km/h 30.6 km/h 42% 0.0 mm CLR
11:15 32.3 °C 18.1 °C 1010.9 hPa NE 19.3 km/h 35.4 km/h 43% 0.0 mm CLR
11:20 32.3 °C 18.8 °C 1010.8 hPa ENE 16.1 km/h 33.8 km/h 45% 0.0 mm CLR
11:25 32.3 °C 18.9 °C 1010.8 hPa NE 16.1 km/h 27.4 km/h 45% 0.0 mm CLR
11:30 32.1 °C 19.0 °C 1010.8 hPa ENE 16.1 km/h 33.8 km/h 46% 0.0 mm CLR
11:35 32.1 °C 18.7 °C 1010.8 hPa ENE 16.1 km/h 32.2 km/h 45% 0.0 mm CLR
11:40 31.8 °C 18.8 °C 1010.8 hPa ENE 16.1 km/h 32.2 km/h 46% 0.0 mm CLR
11:45 31.7 °C 19.7 °C 1010.8 hPa NE 16.1 km/h 27.4 km/h 49% 0.0 mm CLR
11:50 31.7 °C 19.7 °C 1010.8 hPa NE 16.1 km/h 32.2 km/h 49% 0.0 mm CLR
11:55 31.7 °C 19.3 °C 1010.8 hPa ENE 16.1 km/h 25.7 km/h 48% 0.0 mm CLR
12:00 31.7 °C 20.0 °C 1010.8 hPa ENE 14.5 km/h 29.0 km/h 50% 0.0 mm CLR
12:05 31.5 °C 20.1 °C 1010.7 hPa NE 14.5 km/h 30.6 km/h 51% 0.0 mm CLR
12:10 31.3 °C 20.3 °C 1010.7 hPa NE 19.3 km/h 33.8 km/h 52% 0.0 mm CLR
12:15 31.2 °C 20.5 °C 1010.7 hPa NE 19.3 km/h 32.2 km/h 53% 0.0 mm CLR
12:20 31.1 °C 20.4 °C 1010.7 hPa NE 16.1 km/h 30.6 km/h 53% 0.0 mm CLR
12:25 30.9 °C 20.5 °C 1010.7 hPa NE 16.1 km/h 29.0 km/h 54% 0.0 mm CLR
12:30 31.0 °C 20.6 °C 1010.7 hPa NE 19.3 km/h 33.8 km/h 54% 0.0 mm CLR
12:35 31.0 °C 20.6 °C 1010.7 hPa NE 19.3 km/h 25.7 km/h 54% 0.0 mm CLR
12:40 31.1 °C 21.0 °C 1010.7 hPa NE 12.9 km/h 25.7 km/h 55% 0.0 mm CLR
12:45 30.8 °C 21.3 °C 1010.7 hPa NE 12.9 km/h 30.6 km/h 57% 0.0 mm CLR
12:50 30.4 °C 21.8 °C 1010.8 hPa NE 19.3 km/h 32.2 km/h 60% 0.0 mm CLR
12:55 30.5 °C 22.1 °C 1010.8 hPa NE 19.3 km/h 32.2 km/h 61% 0.0 mm CLR
13:00 30.3 °C 22.2 °C 1010.8 hPa NE 19.3 km/h 33.8 km/h 62% 0.0 mm CLR
13:05 30.2 °C 22.1 °C 1010.8 hPa NE 19.3 km/h 33.8 km/h 62% 0.0 mm CLR
13:10 30.1 °C 22.3 °C 1010.8 hPa NNE 19.0 km/h 31.5 km/h 63% 0.0 mm CLR
13:15 29.9 °C 22.1 °C 1010.8 hPa NE 19.3 km/h 33.8 km/h 63% 0.0 mm CLR
13:20 29.8 °C 22.3 °C 1010.8 hPa NE 20.9 km/h 32.2 km/h 64% 0.0 mm CLR
13:25 29.7 °C 22.3 °C 1010.8 hPa NE 20.9 km/h 32.2 km/h 65% 0.0 mm CLR
13:30 29.4 °C 22.4 °C 1010.8 hPa NE 20.9 km/h 32.2 km/h 66% 0.0 mm CLR
13:35 29.4 °C 22.4 °C 1010.9 hPa NE 20.9 km/h 29.0 km/h 66% 0.0 mm CLR
13:40 29.3 °C 22.6 °C 1010.9 hPa NE 16.1 km/h 29.0 km/h 67% 0.0 mm CLR
13:45 29.1 °C 22.6 °C 1010.9 hPa NE 16.1 km/h 30.6 km/h 68% 0.0 mm CLR
13:50 28.9 °C 22.4 °C 1011.2 hPa NE 19.3 km/h 27.4 km/h 68% 0.0 mm CLR
13:55 28.9 °C 22.4 °C 1011.2 hPa NE 19.3 km/h 29.0 km/h 68% 0.0 mm CLR
14:00 28.8 °C 22.6 °C 1011.2 hPa NE 19.3 km/h 33.8 km/h 69% 0.0 mm CLR
14:05 28.8 °C 22.7 °C 1011.3 hPa NE 19.3 km/h 22.5 km/h 70% 0.0 mm CLR
14:10 28.8 °C 22.5 °C 1011.3 hPa NE 12.9 km/h 25.7 km/h 69% 0.0 mm CLR
14:15 28.7 °C 22.6 °C 1011.3 hPa NE 12.9 km/h 24.1 km/h 70% 0.0 mm CLR
14:20 28.6 °C 22.6 °C 1011.5 hPa ENE 14.5 km/h 22.5 km/h 70% 0.0 mm CLR
14:25 28.5 °C 22.7 °C 1011.5 hPa ENE 14.5 km/h 20.9 km/h 71% 0.0 mm CLR
14:30 28.4 °C 22.6 °C 1011.5 hPa NE 11.3 km/h 20.9 km/h 71% 0.0 mm CLR
14:35 28.4 °C 22.6 °C 1011.6 hPa NE 11.3 km/h 16.1 km/h 71% 0.0 mm CLR
14:40 28.3 °C 22.7 °C 1011.6 hPa ENE 11.3 km/h 20.9 km/h 72% 0.0 mm CLR
14:45 28.1 °C 22.6 °C 1011.6 hPa ENE 11.3 km/h 20.9 km/h 72% 0.0 mm CLR
14:50 28.1 °C 22.6 °C 1011.8 hPa ENE 11.3 km/h 20.9 km/h 72% 0.0 mm CLR
14:55 27.9 °C 22.6 °C 1011.8 hPa NE 11.3 km/h 22.5 km/h 73% 0.0 mm CLR
15:00 27.8 °C 22.5 °C 1011.8 hPa NE 12.9 km/h 25.7 km/h 73% 0.0 mm CLR
15:05 27.8 °C 22.7 °C 1011.8 hPa NE 12.9 km/h 20.9 km/h 74% 0.0 mm CLR
15:10 27.7 °C 22.4 °C 1011.8 hPa NE 11.3 km/h 22.5 km/h 73% 0.0 mm CLR
15:15 27.7 °C 22.7 °C 1011.8 hPa NE 11.3 km/h 22.5 km/h 74% 0.0 mm CLR
15:20 27.6 °C 22.6 °C 1011.9 hPa NE 12.9 km/h 20.9 km/h 74% 0.0 mm CLR
15:25 27.6 °C 22.8 °C 1011.9 hPa NE 12.9 km/h 16.1 km/h 75% 0.0 mm CLR
15:30 27.5 °C 22.7 °C 1011.9 hPa NE 9.7 km/h 19.3 km/h 75% 0.0 mm CLR
15:35 27.4 °C 22.8 °C 1012.1 hPa NE 9.7 km/h 17.7 km/h 76% 0.0 mm CLR
15:40 27.4 °C 22.8 °C 1012.1 hPa NE 11.3 km/h 19.3 km/h 76% 0.0 mm CLR
15:45 27.3 °C 22.7 °C 1012.1 hPa NE 11.3 km/h 20.9 km/h 76% 0.0 mm CLR
15:50 27.3 °C 22.7 °C 1012.4 hPa NE 11.3 km/h 16.1 km/h 76% 0.0 mm CLR
15:55 27.3 °C 22.7 °C 1012.4 hPa NE 11.3 km/h 16.1 km/h 76% 0.0 mm CLR
16:00 27.2 °C 22.6 °C 1012.4 hPa NE 9.7 km/h 20.9 km/h 76% 0.0 mm CLR
16:05 27.2 °C 22.6 °C 1012.4 hPa NE 9.7 km/h 19.3 km/h 76% 0.0 mm CLR
16:10 27.3 °C 22.7 °C 1012.4 hPa NE 11.3 km/h 16.1 km/h 76% 0.0 mm CLR
16:15 27.3 °C 22.7 °C 1012.4 hPa NE 11.3 km/h 20.9 km/h 76% 0.0 mm CLR
16:20 27.3 °C 22.7 °C 1012.6 hPa ENE 10.3 km/h 13.0 km/h 76% 0.0 mm CLR
16:25 27.3 °C 22.7 °C 1012.6 hPa NE 11.3 km/h 14.5 km/h 76% 0.0 mm CLR
16:30 27.3 °C 22.7 °C 1012.6 hPa NE 9.7 km/h 14.5 km/h 76% 0.0 mm CLR
16:35 27.2 °C 22.6 °C 1012.7 hPa NE 9.7 km/h 12.9 km/h 76% 0.0 mm CLR
16:40 27.2 °C 22.8 °C 1012.7 hPa NE 8.0 km/h 12.9 km/h 77% 0.0 mm CLR
16:45 27.1 °C 22.9 °C 1012.7 hPa NNE 8.0 km/h 14.5 km/h 78% 0.0 mm CLR
16:50 27.1 °C 22.9 °C 1012.7 hPa NE 8.0 km/h 11.3 km/h 78% 0.0 mm CLR
16:55 27.1 °C 23.2 °C 1012.7 hPa NE 7.6 km/h 8.4 km/h 79% 0.0 mm CLR
17:00 27.1 °C 23.2 °C 1012.7 hPa NE 4.8 km/h 9.7 km/h 79% 0.0 mm CLR
17:05 27.1 °C 23.1 °C 1012.8 hPa NE 4.8 km/h 9.7 km/h 79% 0.0 mm CLR
17:10 27.0 °C 23.1 °C 1012.8 hPa NNE 8.0 km/h 9.7 km/h 79% 0.0 mm CLR
17:15 26.9 °C 23.2 °C 1012.8 hPa NNE 8.0 km/h 11.3 km/h 80% 0.0 mm CLR
17:20 26.9 °C 23.2 °C 1012.9 hPa NNE 8.0 km/h 12.9 km/h 80% 0.0 mm CLR
17:25 26.9 °C 23.2 °C 1012.9 hPa NNE 8.0 km/h 11.3 km/h 80% 0.0 mm CLR
17:30 26.9 °C 23.2 °C 1012.9 hPa NNE 8.0 km/h 9.7 km/h 80% 0.0 mm CLR
17:35 26.9 °C 23.2 °C 1012.9 hPa NNE 8.0 km/h 11.3 km/h 80% 0.0 mm CLR
17:40 26.9 °C 23.4 °C 1012.9 hPa NNE 8.0 km/h 12.9 km/h 81% 0.0 mm CLR
17:45 26.8 °C 23.3 °C 1012.9 hPa NE 8.0 km/h 12.9 km/h 81% 0.0 mm CLR
17:50 26.8 °C 23.3 °C 1012.9 hPa NE 8.0 km/h 12.9 km/h 81% 0.0 mm CLR
17:55 26.8 °C 23.3 °C 1012.9 hPa NE 8.0 km/h 9.7 km/h 81% 0.0 mm CLR
18:00 26.8 °C 23.2 °C 1012.9 hPa NE 8.0 km/h 11.3 km/h 81% 0.0 mm CLR
18:05 26.7 °C 23.2 °C 1012.9 hPa NE 8.0 km/h 11.3 km/h 81% 0.0 mm CLR
18:10 26.7 °C 23.2 °C 1012.9 hPa NE 4.8 km/h 9.7 km/h 81% 0.0 mm CLR
18:15 26.7 °C 23.2 °C 1012.9 hPa NE 4.8 km/h 11.3 km/h 81% 0.0 mm CLR
18:20 26.7 °C 23.2 °C 1013.0 hPa NNE 4.8 km/h 8.0 km/h 81% 0.0 mm CLR
18:25 26.7 °C 23.2 °C 1013.0 hPa North 4.8 km/h 8.0 km/h 81% 0.0 mm CLR
18:30 26.6 °C 23.3 °C 1013.0 hPa North 3.2 km/h 8.0 km/h 82% 0.0 mm CLR
18:35 26.6 °C 23.3 °C 1013.0 hPa NNE 3.2 km/h 8.0 km/h 82% 0.0 mm CLR
18:40 26.6 °C 23.3 °C 1013.0 hPa NNE 3.2 km/h 8.0 km/h 82% 0.0 mm CLR
18:45 26.6 °C 23.3 °C 1013.0 hPa NE 3.2 km/h 8.0 km/h 82% 0.0 mm CLR
18:50 26.5 °C 23.2 °C 1013.0 hPa NE 4.8 km/h 8.0 km/h 82% 0.0 mm CLR
18:55 26.5 °C 23.2 °C 1013.0 hPa NE 4.8 km/h 8.0 km/h 82% 0.0 mm CLR
19:00 26.5 °C 23.2 °C 1013.0 hPa NE 3.2 km/h 8.0 km/h 82% 0.0 mm CLR
19:05 26.5 °C 22.9 °C 1012.9 hPa NE 3.9 km/h 7.4 km/h 81% 0.0 mm CLR
19:10 26.5 °C 22.9 °C 1012.9 hPa NE 3.2 km/h 8.0 km/h 81% 0.0 mm CLR
19:15 26.6 °C 23.0 °C 1012.9 hPa ENE 3.2 km/h 8.0 km/h 81% 0.0 mm CLR
19:20 26.5 °C 22.9 °C 1013.0 hPa ENE 3.2 km/h 8.0 km/h 81% 0.0 mm CLR
19:25 26.6 °C 23.1 °C 1013.0 hPa NE 3.2 km/h 6.4 km/h 81% 0.0 mm CLR
19:30 26.5 °C 22.9 °C 1013.0 hPa NE 3.2 km/h 8.0 km/h 81% 0.0 mm CLR
19:35 26.5 °C 22.9 °C 1012.8 hPa NE 3.2 km/h 8.0 km/h 81% 0.0 mm CLR
19:40 26.5 °C 22.9 °C 1012.8 hPa NE 3.2 km/h 8.0 km/h 81% 0.0 mm CLR
19:45 26.5 °C 22.9 °C 1012.8 hPa NNE 3.2 km/h 8.0 km/h 81% 0.0 mm CLR
19:50 26.4 °C 22.9 °C 1012.7 hPa NE 3.2 km/h 8.0 km/h 81% 0.0 mm CLR
19:55 26.4 °C 22.9 °C 1012.7 hPa NE 3.2 km/h 8.0 km/h 81% 0.0 mm CLR
20:00 26.3 °C 23.0 °C 1012.7 hPa NNE 4.8 km/h 9.7 km/h 82% 0.0 mm CLR
20:05 26.3 °C 23.0 °C 1012.5 hPa NNE 4.8 km/h 9.7 km/h 82% 0.0 mm CLR
20:10 26.2 °C 22.9 °C 1012.5 hPa NNE 3.2 km/h 9.7 km/h 82% 0.0 mm CLR
20:15 26.2 °C 22.9 °C 1012.5 hPa NNE 3.2 km/h 8.0 km/h 82% 0.0 mm CLR
20:20 26.2 °C 23.1 °C 1012.6 hPa NNE 3.2 km/h 8.0 km/h 83% 0.0 mm CLR
20:25 26.2 °C 23.1 °C 1012.6 hPa NE 3.2 km/h 8.0 km/h 83% 0.0 mm CLR
20:30 26.1 °C 23.0 °C 1012.6 hPa NE 3.9 km/h 7.4 km/h 83% 0.0 mm CLR
20:35 26.1 °C 23.0 °C 1012.6 hPa NE 3.2 km/h 8.0 km/h 83% 0.0 mm CLR
20:40 26.1 °C 23.2 °C 1012.6 hPa NE 3.2 km/h 8.0 km/h 84% 0.0 mm CLR
20:45 26.0 °C 23.1 °C 1012.6 hPa NE 3.2 km/h 9.7 km/h 84% 0.0 mm CLR
20:50 25.9 °C 23.0 °C 1012.6 hPa NE 3.2 km/h 8.0 km/h 84% 0.0 mm CLR
20:55 25.9 °C 23.0 °C 1012.6 hPa NE 3.2 km/h 8.0 km/h 84% 0.0 mm CLR
21:00 25.9 °C 23.2 °C 1012.6 hPa NNE 3.2 km/h 8.0 km/h 85% 0.0 mm
21:05 25.9 °C 23.2 °C 1012.6 hPa North 3.2 km/h 8.0 km/h 85% 0.0 mm
21:10 25.9 °C 23.2 °C 1012.6 hPa NNW 3.2 km/h 6.4 km/h 85% 0.0 mm
21:15 25.9 °C 23.0 °C 1012.6 hPa NW 3.2 km/h   84% 0.0 mm CLR
21:20 25.9 °C 23.0 °C 1012.7 hPa Calm     84% 0.0 mm CLR
21:25 25.9 °C 23.2 °C 1012.7 hPa Calm     85% 0.0 mm
21:30 25.9 °C 23.2 °C 1012.7 hPa Calm     85% 0.0 mm
21:35 25.9 °C 23.2 °C 1012.6 hPa Calm     85% 0.0 mm
21:40 25.9 °C 23.2 °C 1012.6 hPa Calm   4.8 km/h 85% 0.0 mm
21:45 25.8 °C 23.1 °C 1012.6 hPa Calm   8.0 km/h 85% 0.0 mm
21:50 25.8 °C 23.1 °C 1012.4 hPa ESE 3.2 km/h 8.0 km/h 85% 0.0 mm
21:55 25.8 °C 23.1 °C 1012.4 hPa ESE 3.2 km/h 8.0 km/h 85% 0.0 mm
22:00 25.7 °C 23.0 °C 1012.4 hPa East 4.8 km/h 8.0 km/h 85% 0.0 mm
22:05 25.7 °C 23.2 °C 1012.3 hPa East 4.8 km/h 8.0 km/h 86% 0.0 mm
22:10 25.6 °C 22.9 °C 1012.3 hPa ESE 3.2 km/h 8.0 km/h 85% 0.0 mm
22:15 25.6 °C 23.1 °C 1012.3 hPa ESE 3.2 km/h 8.0 km/h 86% 0.0 mm
22:20 25.6 °C 23.1 °C 1012.2 hPa East 3.2 km/h 8.0 km/h 86% 0.0 mm
22:25 25.5 °C 23.0 °C 1012.2 hPa NE 3.2 km/h 6.4 km/h 86% 0.0 mm
22:30 25.4 °C 22.9 °C 1012.2 hPa NE 3.2 km/h 4.8 km/h 86% 0.0 mm
22:35 25.4 °C 22.9 °C 1012.2 hPa NE 3.2 km/h 4.8 km/h 86% 0.0 mm
22:40 25.4 °C 22.9 °C 1012.2 hPa NE 3.2 km/h 8.0 km/h 86% 0.0 mm
22:45 25.4 °C 22.9 °C 1012.2 hPa NNE 3.2 km/h 8.0 km/h 86% 0.0 mm
22:50 25.3 °C 22.8 °C 1012.0 hPa NNE 3.2 km/h 8.0 km/h 86% 0.0 mm
22:55 25.3 °C 23.0 °C 1012.0 hPa NNE 3.2 km/h 4.8 km/h 87% 0.0 mm
23:00 25.3 °C 23.0 °C 1012.0 hPa NNE 3.2 km/h 4.8 km/h 87% 0.0 mm
23:05 25.2 °C 22.9 °C 1012.1 hPa NNE 3.2 km/h 6.4 km/h 87% 0.0 mm
23:10 25.2 °C 22.9 °C 1012.1 hPa NNW 3.2 km/h 8.0 km/h 87% 0.0 mm
23:15 25.1 °C 22.8 °C 1012.1 hPa NW 3.2 km/h 4.7 km/h 87% 0.0 mm CLR
23:20 25.1 °C 22.8 °C 1012.2 hPa NW 3.2 km/h 8.0 km/h 87% 0.0 mm
23:25 25.1 °C 22.8 °C 1012.2 hPa NNW 3.2 km/h 4.8 km/h 87% 0.0 mm
23:30 25.1 °C 22.8 °C 1012.2 hPa Calm   3.2 km/h 87% 0.0 mm
23:35 25.1 °C 22.8 °C 1012.1 hPa Calm   6.4 km/h 87% 0.0 mm
23:40 25.1 °C 22.8 °C 1012.1 hPa NNW 3.2 km/h 6.4 km/h 87% 0.0 mm
23:45 25.0 °C 22.7 °C 1012.1 hPa NNW 3.2 km/h 3.2 km/h 87% 0.0 mm
23:50 25.0 °C 22.7 °C 1012.2 hPa Calm   4.8 km/h 87% 0.0 mm
23:55 24.9 °C 22.6 °C 1012.2 hPa Calm   11.3 km/h 87% 0.0 mm
Murcia-Puente Tocinos, España
Compliments of Weather Underground - 2.75 mb

La estación de MeteoMurcia.com, publica sus datos en los siguientes proyectos:

Weather Underground PWS IMURCIAP2 Meteoclimatic www.awekas.at

W3Counter
Web Analytics